Rhonda Lamulle — WDC8441 — position and weather

sailwx.info

Track history (hours):
 
Tides and Currents Weather Stations Pressure Air Temp Water Temp Dewpoint Dewpoint Depression Visibility Wind Speed Wind Dir Waves Ship Positions

Rhonda Lamulle

Owner: Florida Marine Transporters, Inc., Mandeville, LA. More information available from US FCC via Universal Licensing System and Coast Guard Vessel Documentation Center.

Last reported at 2015-May-22 21:31 UTC. Time now 2015-May-23 14:56 UTC.
Position N 30°24' W 086°37'.

Length 13 m; draft 3 m.

Type: Towing. MMSI: 367087104.

Date/timePositionNaut miles runAvg speedWind from/ knotsBaromVisibWave heightAir tempDewpointWater temp
2015-May-22 21:31N 30°24' W 086°37'5 5.7
2015-May-22 20:33N 30°25' W 086°31'4 4.1
2015-May-22 19:33N 30°29' W 086°29'1 0.5
2015-May-22 18:33N 30°29' W 086°29'0 0.0
2015-May-22 17:33N 30°29' W 086°29'0 0.0
2015-May-22 16:33N 30°29' W 086°29'0 0.0
2015-May-22 15:33N 30°29' W 086°29'0 0.0
2015-May-22 14:33N 30°29' W 086°29'0 0.0
2015-May-22 13:33N 30°29' W 086°29'0 0.1
2015-May-22 12:33N 30°29' W 086°29'0 0.4
2015-May-22 11:33N 30°29' W 086°29'5 5.3
2015-May-22 10:33N 30°26' W 086°24'7 6.9
2015-May-22 09:33N 30°26' W 086°16'2 0.0
2015-May-20 13:33N 30°26' W 086°14'6 6.2
2015-May-20 12:33N 30°26' W 086°21'6 6.3
2015-May-20 11:33N 30°26' W 086°28'6 5.9
2015-May-20 10:33N 30°24' W 086°35'4 3.6
2015-May-20 09:33N 30°24' W 086°39'4 4.1
2015-May-20 08:27N 30°24' W 086°44'5 5.3
2015-May-20 07:33N 30°24' W 086°50'6 5.6
2015-May-20 06:32N 30°23' W 086°56'  
2015-May-14 03:26N 30°24' W 086°54'5 5.9
2015-May-14 02:32N 30°24' W 086°48'5 4.4
2015-May-14 01:26N 30°24' W 086°42'5 0.2
2015-May-13 00:30N 30°24' W 086°37'5 4.7
2015-May-12 23:32N 30°25' W 086°32'5 4.9
2015-May-12 22:33N 30°29' W 086°28'1 0.9
2015-May-12 21:33N 30°29' W 086°29'  
Track history (hours):
 
Tides and Currents Weather Stations Pressure Air Temp Water Temp Dewpoint Dewpoint Depression Visibility Wind Speed Wind Dir Waves Ship Positions

Rhonda Lamulle

Owner: Florida Marine Transporters, Inc., Mandeville, LA. More information available from US FCC via Universal Licensing System and Coast Guard Vessel Documentation Center.

Last reported at 2015-May-22 21:31 UTC. Time now 2015-May-23 14:56 UTC.
Position N 30°24' W 086°37'.

Length 13 m; draft 3 m.

Type: Towing. MMSI: 367087104.

Date/timePositionNaut miles runAvg speedWind from/ knotsBaromVisibWave heightAir tempDewpointWater temp
2015-May-22 21:31N 30°24' W 086°37'5 5.7
2015-May-22 20:33N 30°25' W 086°31'4 4.1
2015-May-22 19:33N 30°29' W 086°29'1 0.5
2015-May-22 18:33N 30°29' W 086°29'0 0.0
2015-May-22 17:33N 30°29' W 086°29'0 0.0
2015-May-22 16:33N 30°29' W 086°29'0 0.0
2015-May-22 15:33N 30°29' W 086°29'0 0.0
2015-May-22 14:33N 30°29' W 086°29'0 0.0
2015-May-22 13:33N 30°29' W 086°29'0 0.1
2015-May-22 12:33N 30°29' W 086°29'0 0.4
2015-May-22 11:33N 30°29' W 086°29'5 5.3
2015-May-22 10:33N 30°26' W 086°24'7 6.9
2015-May-22 09:33N 30°26' W 086°16'2 0.0
2015-May-20 13:33N 30°26' W 086°14'6 6.2
2015-May-20 12:33N 30°26' W 086°21'6 6.3
2015-May-20 11:33N 30°26' W 086°28'6 5.9
2015-May-20 10:33N 30°24' W 086°35'4 3.6
2015-May-20 09:33N 30°24' W 086°39'4 4.1
2015-May-20 08:27N 30°24' W 086°44'5 5.3
2015-May-20 07:33N 30°24' W 086°50'6 5.6
2015-May-20 06:32N 30°23' W 086°56'  
2015-May-14 03:26N 30°24' W 086°54'5 5.9
2015-May-14 02:32N 30°24' W 086°48'5 4.4
2015-May-14 01:26N 30°24' W 086°42'5 0.2
2015-May-13 00:30N 30°24' W 086°37'5 4.7
2015-May-12 23:32N 30°25' W 086°32'5 4.9
2015-May-12 22:33N 30°29' W 086°28'1 0.9
2015-May-12 21:33N 30°29' W 086°29'  

Dump ship's entire track history